sensor_id;sensor_type;location;lat;lon;timestamp;P1;durP1;ratioP1;P2;durP2;ratioP2
74528;SDS011;63009;52.584;5.932;2023-03-13T00:00:16;20.98;;;6.35;;
74528;SDS011;63009;52.584;5.932;2023-03-13T00:02:42;21.38;;;6.43;;
74528;SDS011;63009;52.584;5.932;2023-03-13T00:05:09;22.92;;;7.10;;
74528;SDS011;63009;52.584;5.932;2023-03-13T00:07:38;20.00;;;6.07;;
74528;SDS011;63009;52.584;5.932;2023-03-13T00:10:03;19.38;;;4.93;;
74528;SDS011;63009;52.584;5.932;2023-03-13T00:12:29;20.80;;;4.38;;
74528;SDS011;63009;52.584;5.932;2023-03-13T00:14:54;20.13;;;4.10;;
74528;SDS011;63009;52.584;5.932;2023-03-13T00:17:20;19.20;;;3.93;;
74528;SDS011;63009;52.584;5.932;2023-03-13T00:19:45;15.20;;;3.20;;
74528;SDS011;63009;52.584;5.932;2023-03-13T00:22:10;19.53;;;3.70;;
74528;SDS011;63009;52.584;5.932;2023-03-13T00:24:36;18.57;;;3.73;;
74528;SDS011;63009;52.584;5.932;2023-03-13T00:27:01;17.50;;;5.40;;
74528;SDS011;63009;52.584;5.932;2023-03-13T00:29:29;19.27;;;4.65;;
74528;SDS011;63009;52.584;5.932;2023-03-13T00:31:56;18.48;;;4.10;;
74528;SDS011;63009;52.584;5.932;2023-03-13T00:34:21;25.98;;;4.78;;
74528;SDS011;63009;52.584;5.932;2023-03-13T00:36:50;19.98;;;4.20;;
74528;SDS011;63009;52.584;5.932;2023-03-13T00:39:16;14.75;;;3.55;;
74528;SDS011;63009;52.584;5.932;2023-03-13T00:41:41;21.23;;;4.43;;
74528;SDS011;63009;52.584;5.932;2023-03-13T00:44:07;28.40;;;4.80;;
74528;SDS011;63009;52.584;5.932;2023-03-13T00:46:33;13.95;;;3.50;;
74528;SDS011;63009;52.584;5.932;2023-03-13T00:48:58;14.48;;;3.75;;
74528;SDS011;63009;52.584;5.932;2023-03-13T00:51:24;21.43;;;3.30;;
74528;SDS011;63009;52.584;5.932;2023-03-13T00:53:51;22.90;;;3.90;;
74528;SDS011;63009;52.584;5.932;2023-03-13T00:56:18;16.70;;;4.07;;
74528;SDS011;63009;52.584;5.932;2023-03-13T00:58:45;21.65;;;4.68;;
74528;SDS011;63009;52.584;5.932;2023-03-13T01:01:25;17.67;;;3.50;;
74528;SDS011;63009;52.584;5.932;2023-03-13T01:06:20;18.67;;;4.00;;
74528;SDS011;63009;52.584;5.932;2023-03-13T01:08:47;15.55;;;4.13;;
74528;SDS011;63009;52.584;5.932;2023-03-13T01:11:16;18.27;;;3.97;;
74528;SDS011;63009;52.584;5.932;2023-03-13T01:13:46;18.10;;;4.05;;
74528;SDS011;63009;52.584;5.932;2023-03-13T01:16:13;21.60;;;4.47;;
74528;SDS011;63009;52.584;5.932;2023-03-13T01:21:07;16.33;;;4.00;;
74528;SDS011;63009;52.584;5.932;2023-03-13T01:23:33;14.05;;;3.17;;
74528;SDS011;63009;52.584;5.932;2023-03-13T01:25:58;12.90;;;3.00;;
74528;SDS011;63009;52.584;5.932;2023-03-13T01:28:24;14.02;;;3.85;;
74528;SDS011;63009;52.584;5.932;2023-03-13T01:30:51;17.02;;;4.50;;
74528;SDS011;63009;52.584;5.932;2023-03-13T01:33:16;17.65;;;4.38;;
74528;SDS011;63009;52.584;5.932;2023-03-13T01:35:42;22.02;;;4.43;;
74528;SDS011;63009;52.584;5.932;2023-03-13T01:38:08;13.63;;;3.83;;
74528;SDS011;63009;52.584;5.932;2023-03-13T01:40:43;15.90;;;4.55;;
74528;SDS011;63009;52.584;5.932;2023-03-13T01:45:52;13.35;;;3.35;;
74528;SDS011;63009;52.584;5.932;2023-03-13T01:51:49;10.77;;;3.53;;
74528;SDS011;63009;52.584;5.932;2023-03-13T01:57:07;13.07;;;3.83;;
74528;SDS011;63009;52.584;5.932;2023-03-13T01:59:41;11.27;;;2.85;;
74528;SDS011;63009;52.584;5.932;2023-03-13T02:02:10;13.95;;;3.90;;
74528;SDS011;63009;52.584;5.932;2023-03-13T02:04:37;11.40;;;3.70;;
74528;SDS011;63009;52.584;5.932;2023-03-13T02:07:07;11.30;;;3.80;;
74528;SDS011;63009;52.584;5.932;2023-03-13T02:09:36;8.98;;;2.65;;
74528;SDS011;63009;52.584;5.932;2023-03-13T02:12:12;12.27;;;3.05;;
74528;SDS011;63009;52.584;5.932;2023-03-13T02:14:41;11.82;;;3.20;;
74528;SDS011;63009;52.584;5.932;2023-03-13T02:17:09;11.18;;;2.58;;
74528;SDS011;63009;52.584;5.932;2023-03-13T02:19:45;11.50;;;3.35;;
74528;SDS011;63009;52.584;5.932;2023-03-13T02:25:11;8.90;;;2.65;;
74528;SDS011;63009;52.584;5.932;2023-03-13T02:27:51;11.52;;;3.08;;
74528;SDS011;63009;52.584;5.932;2023-03-13T02:30:32;10.27;;;2.80;;
74528;SDS011;63009;52.584;5.932;2023-03-13T02:32:58;9.07;;;3.33;;
74528;SDS011;63009;52.584;5.932;2023-03-13T02:35:25;9.65;;;2.95;;
74528;SDS011;63009;52.584;5.932;2023-03-13T02:37:51;9.95;;;2.67;;
74528;SDS011;63009;52.584;5.932;2023-03-13T02:40:21;10.23;;;3.67;;
74528;SDS011;63009;52.584;5.932;2023-03-13T02:42:52;9.85;;;2.78;;
74528;SDS011;63009;52.584;5.932;2023-03-13T02:45:18;8.88;;;2.58;;
74528;SDS011;63009;52.584;5.932;2023-03-13T02:47:43;7.88;;;2.72;;
74528;SDS011;63009;52.584;5.932;2023-03-13T02:50:09;11.60;;;3.00;;
74528;SDS011;63009;52.584;5.932;2023-03-13T02:52:37;8.40;;;3.10;;
74528;SDS011;63009;52.584;5.932;2023-03-13T02:55:11;8.35;;;3.08;;
74528;SDS011;63009;52.584;5.932;2023-03-13T02:57:42;14.85;;;3.72;;
74528;SDS011;63009;52.584;5.932;2023-03-13T03:00:08;10.77;;;3.38;;
74528;SDS011;63009;52.584;5.932;2023-03-13T03:02:37;10.60;;;3.38;;
74528;SDS011;63009;52.584;5.932;2023-03-13T03:05:03;10.65;;;3.47;;
74528;SDS011;63009;52.584;5.932;2023-03-13T03:07:29;10.40;;;3.92;;
74528;SDS011;63009;52.584;5.932;2023-03-13T03:09:55;11.77;;;4.53;;
74528;SDS011;63009;52.584;5.932;2023-03-13T03:12:20;9.32;;;3.55;;
74528;SDS011;63009;52.584;5.932;2023-03-13T03:14:45;9.00;;;3.90;;
74528;SDS011;63009;52.584;5.932;2023-03-13T03:17:11;10.20;;;3.38;;
74528;SDS011;63009;52.584;5.932;2023-03-13T03:19:36;9.85;;;3.97;;
74528;SDS011;63009;52.584;5.932;2023-03-13T03:22:02;11.60;;;4.30;;
74528;SDS011;63009;52.584;5.932;2023-03-13T03:24:27;8.68;;;3.30;;
74528;SDS011;63009;52.584;5.932;2023-03-13T03:26:52;8.83;;;3.63;;
74528;SDS011;63009;52.584;5.932;2023-03-13T03:29:18;9.10;;;3.72;;
74528;SDS011;63009;52.584;5.932;2023-03-13T03:31:43;9.65;;;3.95;;
74528;SDS011;63009;52.584;5.932;2023-03-13T03:34:08;9.17;;;3.70;;
74528;SDS011;63009;52.584;5.932;2023-03-13T03:36:34;9.43;;;3.90;;
74528;SDS011;63009;52.584;5.932;2023-03-13T03:38:59;11.50;;;3.83;;
74528;SDS011;63009;52.584;5.932;2023-03-13T03:41:24;11.87;;;3.77;;
74528;SDS011;63009;52.584;5.932;2023-03-13T03:43:49;10.30;;;4.38;;
74528;SDS011;63009;52.584;5.932;2023-03-13T03:46:15;11.35;;;4.43;;
74528;SDS011;63009;52.584;5.932;2023-03-13T03:48:41;11.55;;;3.95;;
74528;SDS011;63009;52.584;5.932;2023-03-13T03:51:06;13.32;;;4.68;;
74528;SDS011;63009;52.584;5.932;2023-03-13T03:53:32;10.38;;;4.50;;
74528;SDS011;63009;52.584;5.932;2023-03-13T03:55:57;11.10;;;4.68;;
74528;SDS011;63009;52.584;5.932;2023-03-13T03:58:23;12.63;;;5.13;;
74528;SDS011;63009;52.584;5.932;2023-03-13T04:00:49;10.93;;;5.07;;
74528;SDS011;63009;52.584;5.932;2023-03-13T04:03:15;10.63;;;5.10;;
74528;SDS011;63009;52.584;5.932;2023-03-13T04:05:40;12.27;;;5.60;;
74528;SDS011;63009;52.584;5.932;2023-03-13T04:08:07;11.13;;;5.00;;
74528;SDS011;63009;52.584;5.932;2023-03-13T04:10:32;14.13;;;6.72;;
74528;SDS011;63009;52.584;5.932;2023-03-13T04:12:57;11.70;;;4.70;;
74528;SDS011;63009;52.584;5.932;2023-03-13T04:15:23;15.85;;;6.00;;
74528;SDS011;63009;52.584;5.932;2023-03-13T04:17:48;17.08;;;6.65;;
74528;SDS011;63009;52.584;5.932;2023-03-13T04:20:14;12.90;;;6.07;;
74528;SDS011;63009;52.584;5.932;2023-03-13T04:22:40;16.40;;;5.88;;
74528;SDS011;63009;52.584;5.932;2023-03-13T04:25:06;16.58;;;7.07;;
74528;SDS011;63009;52.584;5.932;2023-03-13T04:27:32;12.25;;;6.13;;
74528;SDS011;63009;52.584;5.932;2023-03-13T04:29:58;13.40;;;5.78;;
74528;SDS011;63009;52.584;5.932;2023-03-13T04:32:24;12.27;;;5.63;;
74528;SDS011;63009;52.584;5.932;2023-03-13T04:34:50;14.73;;;5.35;;
74528;SDS011;63009;52.584;5.932;2023-03-13T04:37:15;12.70;;;5.47;;
74528;SDS011;63009;52.584;5.932;2023-03-13T04:39:41;12.48;;;5.32;;
74528;SDS011;63009;52.584;5.932;2023-03-13T04:42:07;18.10;;;6.03;;
74528;SDS011;63009;52.584;5.932;2023-03-13T04:44:34;13.13;;;5.90;;
74528;SDS011;63009;52.584;5.932;2023-03-13T04:47:00;13.30;;;5.25;;
74528;SDS011;63009;52.584;5.932;2023-03-13T04:49:25;9.97;;;4.73;;
74528;SDS011;63009;52.584;5.932;2023-03-13T04:51:50;12.80;;;5.57;;
74528;SDS011;63009;52.584;5.932;2023-03-13T04:54:16;12.63;;;4.70;;
74528;SDS011;63009;52.584;5.932;2023-03-13T04:56:41;12.03;;;4.90;;
74528;SDS011;63009;52.584;5.932;2023-03-13T04:59:06;10.43;;;4.60;;
74528;SDS011;63009;52.584;5.932;2023-03-13T05:01:32;11.13;;;4.28;;
74528;SDS011;63009;52.584;5.932;2023-03-13T05:03:57;12.30;;;4.53;;
74528;SDS011;63009;52.584;5.932;2023-03-13T05:06:22;11.43;;;4.50;;
74528;SDS011;63009;52.584;5.932;2023-03-13T05:08:48;10.80;;;4.50;;
74528;SDS011;63009;52.584;5.932;2023-03-13T05:11:13;12.67;;;5.50;;
74528;SDS011;63009;52.584;5.932;2023-03-13T05:13:38;9.45;;;4.20;;
74528;SDS011;63009;52.584;5.932;2023-03-13T05:16:04;13.37;;;4.23;;
74528;SDS011;63009;52.584;5.932;2023-03-13T05:18:29;9.40;;;4.13;;
74528;SDS011;63009;52.584;5.932;2023-03-13T05:20:55;10.40;;;3.90;;
74528;SDS011;63009;52.584;5.932;2023-03-13T05:23:21;11.55;;;4.43;;
74528;SDS011;63009;52.584;5.932;2023-03-13T05:25:46;8.23;;;3.67;;
74528;SDS011;63009;52.584;5.932;2023-03-13T05:28:12;9.73;;;3.60;;
74528;SDS011;63009;52.584;5.932;2023-03-13T05:30:37;8.93;;;4.10;;
74528;SDS011;63009;52.584;5.932;2023-03-13T05:33:02;9.50;;;3.65;;
74528;SDS011;63009;52.584;5.932;2023-03-13T05:35:28;12.88;;;5.13;;
74528;SDS011;63009;52.584;5.932;2023-03-13T05:37:53;11.30;;;4.43;;
74528;SDS011;63009;52.584;5.932;2023-03-13T05:40:19;9.93;;;3.78;;
74528;SDS011;63009;52.584;5.932;2023-03-13T05:42:44;11.93;;;3.60;;
74528;SDS011;63009;52.584;5.932;2023-03-13T05:45:09;11.40;;;4.43;;
74528;SDS011;63009;52.584;5.932;2023-03-13T05:47:35;8.38;;;3.45;;
74528;SDS011;63009;52.584;5.932;2023-03-13T05:50:02;9.25;;;3.75;;
74528;SDS011;63009;52.584;5.932;2023-03-13T05:52:28;10.82;;;3.83;;
74528;SDS011;63009;52.584;5.932;2023-03-13T05:54:54;8.05;;;3.42;;
74528;SDS011;63009;52.584;5.932;2023-03-13T05:57:19;10.03;;;3.40;;
74528;SDS011;63009;52.584;5.932;2023-03-13T05:59:44;9.67;;;3.67;;
74528;SDS011;63009;52.584;5.932;2023-03-13T06:02:09;15.03;;;4.67;;
74528;SDS011;63009;52.584;5.932;2023-03-13T06:04:35;10.05;;;3.33;;
74528;SDS011;63009;52.584;5.932;2023-03-13T06:07:00;11.37;;;4.00;;
74528;SDS011;63009;52.584;5.932;2023-03-13T06:09:26;10.55;;;3.63;;
74528;SDS011;63009;52.584;5.932;2023-03-13T06:11:51;14.45;;;3.63;;
74528;SDS011;63009;52.584;5.932;2023-03-13T06:14:16;11.57;;;3.33;;
74528;SDS011;63009;52.584;5.932;2023-03-13T06:16:42;12.50;;;3.43;;
74528;SDS011;63009;52.584;5.932;2023-03-13T06:19:07;12.45;;;3.78;;
74528;SDS011;63009;52.584;5.932;2023-03-13T06:21:33;10.07;;;3.40;;
74528;SDS011;63009;52.584;5.932;2023-03-13T06:23:58;10.30;;;3.20;;
74528;SDS011;63009;52.584;5.932;2023-03-13T06:26:23;11.75;;;4.43;;
74528;SDS011;63009;52.584;5.932;2023-03-13T06:28:49;9.77;;;2.97;;
74528;SDS011;63009;52.584;5.932;2023-03-13T06:31:15;10.32;;;3.50;;
74528;SDS011;63009;52.584;5.932;2023-03-13T06:33:40;8.80;;;3.00;;
74528;SDS011;63009;52.584;5.932;2023-03-13T06:36:05;11.90;;;3.87;;
74528;SDS011;63009;52.584;5.932;2023-03-13T06:38:31;11.00;;;3.00;;
74528;SDS011;63009;52.584;5.932;2023-03-13T06:40:57;12.30;;;3.33;;
74528;SDS011;63009;52.584;5.932;2023-03-13T06:43:22;8.93;;;3.03;;
74528;SDS011;63009;52.584;5.932;2023-03-13T06:45:48;11.73;;;3.17;;
74528;SDS011;63009;52.584;5.932;2023-03-13T06:48:13;10.98;;;3.47;;
74528;SDS011;63009;52.584;5.932;2023-03-13T06:50:39;12.63;;;4.67;;
74528;SDS011;63009;52.584;5.932;2023-03-13T06:53:05;8.63;;;3.10;;
74528;SDS011;63009;52.584;5.932;2023-03-13T06:55:31;9.90;;;2.88;;
74528;SDS011;63009;52.584;5.932;2023-03-13T06:57:57;9.30;;;2.83;;
74528;SDS011;63009;52.584;5.932;2023-03-13T07:00:22;9.57;;;2.78;;
74528;SDS011;63009;52.584;5.932;2023-03-13T07:02:48;8.65;;;2.47;;
74528;SDS011;63009;52.584;5.932;2023-03-13T07:05:14;8.93;;;2.80;;
74528;SDS011;63009;52.584;5.932;2023-03-13T07:07:40;11.27;;;2.67;;
74528;SDS011;63009;52.584;5.932;2023-03-13T07:10:06;10.18;;;3.30;;
74528;SDS011;63009;52.584;5.932;2023-03-13T07:12:35;9.13;;;2.60;;
74528;SDS011;63009;52.584;5.932;2023-03-13T07:15:02;9.70;;;2.70;;
74528;SDS011;63009;52.584;5.932;2023-03-13T07:17:27;8.70;;;2.97;;
74528;SDS011;63009;52.584;5.932;2023-03-13T07:19:53;13.47;;;3.33;;
74528;SDS011;63009;52.584;5.932;2023-03-13T07:22:18;9.50;;;2.85;;
74528;SDS011;63009;52.584;5.932;2023-03-13T07:24:43;14.93;;;3.13;;
74528;SDS011;63009;52.584;5.932;2023-03-13T07:27:09;8.95;;;3.08;;
74528;SDS011;63009;52.584;5.932;2023-03-13T07:29:34;9.00;;;2.80;;
74528;SDS011;63009;52.584;5.932;2023-03-13T07:31:59;8.77;;;2.67;;
74528;SDS011;63009;52.584;5.932;2023-03-13T07:34:25;8.00;;;3.10;;
74528;SDS011;63009;52.584;5.932;2023-03-13T07:36:50;9.77;;;3.05;;
74528;SDS011;63009;52.584;5.932;2023-03-13T07:39:15;11.20;;;3.10;;
74528;SDS011;63009;52.584;5.932;2023-03-13T07:41:41;7.50;;;2.67;;
74528;SDS011;63009;52.584;5.932;2023-03-13T07:44:06;10.27;;;3.10;;
74528;SDS011;63009;52.584;5.932;2023-03-13T07:46:32;9.88;;;2.67;;
74528;SDS011;63009;52.584;5.932;2023-03-13T07:48:57;8.80;;;2.53;;
74528;SDS011;63009;52.584;5.932;2023-03-13T07:51:24;11.48;;;3.05;;
74528;SDS011;63009;52.584;5.932;2023-03-13T07:53:50;9.80;;;2.88;;
74528;SDS011;63009;52.584;5.932;2023-03-13T07:56:17;8.38;;;2.80;;
74528;SDS011;63009;52.584;5.932;2023-03-13T07:58:44;9.77;;;3.53;;
74528;SDS011;63009;52.584;5.932;2023-03-13T08:01:10;8.45;;;2.38;;
74528;SDS011;63009;52.584;5.932;2023-03-13T08:03:40;8.13;;;2.90;;
74528;SDS011;63009;52.584;5.932;2023-03-13T08:06:07;10.75;;;4.07;;
74528;SDS011;63009;52.584;5.932;2023-03-13T08:08:34;7.63;;;2.58;;
74528;SDS011;63009;52.584;5.932;2023-03-13T08:11:00;8.35;;;2.80;;
74528;SDS011;63009;52.584;5.932;2023-03-13T08:13:26;8.52;;;3.20;;
74528;SDS011;63009;52.584;5.932;2023-03-13T08:15:52;8.57;;;2.65;;
74528;SDS011;63009;52.584;5.932;2023-03-13T08:18:25;8.02;;;3.22;;
74528;SDS011;63009;52.584;5.932;2023-03-13T08:20:51;7.70;;;2.63;;
74528;SDS011;63009;52.584;5.932;2023-03-13T08:23:16;8.97;;;2.87;;
74528;SDS011;63009;52.584;5.932;2023-03-13T08:25:41;8.37;;;3.43;;
74528;SDS011;63009;52.584;5.932;2023-03-13T08:28:06;10.93;;;2.90;;
74528;SDS011;63009;52.584;5.932;2023-03-13T08:30:32;9.65;;;3.30;;
74528;SDS011;63009;52.584;5.932;2023-03-13T08:32:58;10.38;;;3.17;;
74528;SDS011;63009;52.584;5.932;2023-03-13T08:35:23;7.40;;;2.80;;
74528;SDS011;63009;52.584;5.932;2023-03-13T08:37:48;9.13;;;2.70;;
74528;SDS011;63009;52.584;5.932;2023-03-13T08:40:14;10.25;;;2.40;;
74528;SDS011;63009;52.584;5.932;2023-03-13T08:42:39;8.20;;;3.10;;
74528;SDS011;63009;52.584;5.932;2023-03-13T08:45:05;8.55;;;2.80;;
74528;SDS011;63009;52.584;5.932;2023-03-13T08:47:31;8.38;;;2.40;;
74528;SDS011;63009;52.584;5.932;2023-03-13T08:49:56;7.78;;;2.53;;
74528;SDS011;63009;52.584;5.932;2023-03-13T08:52:22;8.90;;;3.38;;
74528;SDS011;63009;52.584;5.932;2023-03-13T08:54:47;9.03;;;2.57;;
74528;SDS011;63009;52.584;5.932;2023-03-13T08:57:12;9.43;;;3.42;;
74528;SDS011;63009;52.584;5.932;2023-03-13T08:59:39;8.80;;;2.75;;
74528;SDS011;63009;52.584;5.932;2023-03-13T09:02:04;13.65;;;2.83;;
74528;SDS011;63009;52.584;5.932;2023-03-13T09:04:30;9.37;;;2.70;;
74528;SDS011;63009;52.584;5.932;2023-03-13T09:06:55;10.27;;;2.50;;
74528;SDS011;63009;52.584;5.932;2023-03-13T09:09:20;11.50;;;2.30;;
74528;SDS011;63009;52.584;5.932;2023-03-13T09:11:45;10.32;;;2.38;;
74528;SDS011;63009;52.584;5.932;2023-03-13T09:14:11;8.70;;;2.83;;
74528;SDS011;63009;52.584;5.932;2023-03-13T09:16:36;9.20;;;2.20;;
74528;SDS011;63009;52.584;5.932;2023-03-13T09:19:01;8.25;;;2.13;;
74528;SDS011;63009;52.584;5.932;2023-03-13T09:21:29;15.35;;;2.42;;
74528;SDS011;63009;52.584;5.932;2023-03-13T09:23:56;6.22;;;1.70;;
74528;SDS011;63009;52.584;5.932;2023-03-13T09:26:22;6.80;;;1.77;;
74528;SDS011;63009;52.584;5.932;2023-03-13T09:28:48;10.02;;;2.72;;
74528;SDS011;63009;52.584;5.932;2023-03-13T09:31:15;7.40;;;2.20;;
74528;SDS011;63009;52.584;5.932;2023-03-13T09:33:43;6.53;;;1.75;;
74528;SDS011;63009;52.584;5.932;2023-03-13T09:36:09;7.68;;;1.92;;
74528;SDS011;63009;52.584;5.932;2023-03-13T09:38:35;9.15;;;2.30;;
74528;SDS011;63009;52.584;5.932;2023-03-13T09:43:59;7.95;;;2.65;;
74528;SDS011;63009;52.584;5.932;2023-03-13T09:46:58;6.63;;;1.90;;
74528;SDS011;63009;52.584;5.932;2023-03-13T09:49:29;7.47;;;2.65;;
74528;SDS011;63009;52.584;5.932;2023-03-13T09:54:48;9.30;;;1.67;;
74528;SDS011;63009;52.584;5.932;2023-03-13T09:58:13;7.22;;;2.08;;
74528;SDS011;63009;52.584;5.932;2023-03-13T10:00:23;9.98;;;1.90;;
74528;SDS011;63009;52.584;5.932;2023-03-13T10:02:57;9.35;;;2.47;;
74528;SDS011;63009;52.584;5.932;2023-03-13T10:05:28;7.05;;;2.20;;
74528;SDS011;63009;52.584;5.932;2023-03-13T10:10:43;11.43;;;2.30;;
74528;SDS011;63009;52.584;5.932;2023-03-13T10:16:21;8.43;;;1.70;;
74528;SDS011;63009;52.584;5.932;2023-03-13T10:18:55;9.32;;;2.13;;
74528;SDS011;63009;52.584;5.932;2023-03-13T10:21:23;11.00;;;2.20;;
74528;SDS011;63009;52.584;5.932;2023-03-13T10:23:57;11.77;;;2.35;;
74528;SDS011;63009;52.584;5.932;2023-03-13T10:26:28;9.80;;;2.17;;
74528;SDS011;63009;52.584;5.932;2023-03-13T10:28:56;9.57;;;2.28;;
74528;SDS011;63009;52.584;5.932;2023-03-13T10:31:34;10.23;;;2.05;;
74528;SDS011;63009;52.584;5.932;2023-03-13T10:34:05;8.85;;;1.85;;
74528;SDS011;63009;52.584;5.932;2023-03-13T10:36:38;12.63;;;3.25;;
74528;SDS011;63009;52.584;5.932;2023-03-13T10:39:20;7.38;;;1.90;;
74528;SDS011;63009;52.584;5.932;2023-03-13T10:41:48;8.25;;;2.58;;
74528;SDS011;63009;52.584;5.932;2023-03-13T10:44:16;11.02;;;1.90;;
74528;SDS011;63009;52.584;5.932;2023-03-13T10:46:44;9.68;;;1.80;;
74528;SDS011;63009;52.584;5.932;2023-03-13T10:49:20;9.38;;;2.00;;
74528;SDS011;63009;52.584;5.932;2023-03-13T10:51:49;6.75;;;1.55;;
74528;SDS011;63009;52.584;5.932;2023-03-13T10:54:33;8.05;;;1.50;;
74528;SDS011;63009;52.584;5.932;2023-03-13T10:59:46;7.55;;;1.75;;
74528;SDS011;63009;52.584;5.932;2023-03-13T11:02:26;5.95;;;1.35;;
74528;SDS011;63009;52.584;5.932;2023-03-13T11:04:55;7.25;;;1.52;;
74528;SDS011;63009;52.584;5.932;2023-03-13T11:07:37;4.45;;;1.20;;
74528;SDS011;63009;52.584;5.932;2023-03-13T11:10:13;5.53;;;1.48;;
74528;SDS011;63009;52.584;5.932;2023-03-13T11:12:44;5.22;;;1.50;;
74528;SDS011;63009;52.584;5.932;2023-03-13T11:15:15;7.85;;;1.42;;
74528;SDS011;63009;52.584;5.932;2023-03-13T11:17:43;7.38;;;1.33;;
74528;SDS011;63009;52.584;5.932;2023-03-13T11:20:27;6.38;;;1.58;;
74528;SDS011;63009;52.584;5.932;2023-03-13T11:28:39;6.90;;;1.30;;
74528;SDS011;63009;52.584;5.932;2023-03-13T11:31:10;8.07;;;1.55;;
74528;SDS011;63009;52.584;5.932;2023-03-13T11:38:38;6.65;;;1.60;;
74528;SDS011;63009;52.584;5.932;2023-03-13T11:46:37;8.27;;;1.60;;
74528;SDS011;63009;52.584;5.932;2023-03-13T11:57:57;8.18;;;1.83;;
74528;SDS011;63009;52.584;5.932;2023-03-13T12:03:54;8.65;;;1.80;;
74528;SDS011;63009;52.584;5.932;2023-03-13T12:06:27;7.40;;;1.85;;
74528;SDS011;63009;52.584;5.932;2023-03-13T12:15:14;6.47;;;2.42;;
74528;SDS011;63009;52.584;5.932;2023-03-13T12:18:31;8.30;;;1.75;;
74528;SDS011;63009;52.584;5.932;2023-03-13T12:23:24;9.52;;;1.85;;
74528;SDS011;63009;52.584;5.932;2023-03-13T12:26:16;10.25;;;2.67;;
74528;SDS011;63009;52.584;5.932;2023-03-13T12:34:29;7.93;;;1.90;;
74528;SDS011;63009;52.584;5.932;2023-03-13T12:37:46;6.28;;;1.70;;
74528;SDS011;63009;52.584;5.932;2023-03-13T12:45:29;11.43;;;2.20;;
74528;SDS011;63009;52.584;5.932;2023-03-13T12:51:09;9.77;;;3.13;;
74528;SDS011;63009;52.584;5.932;2023-03-13T13:02:26;10.27;;;2.30;;
74528;SDS011;63009;52.584;5.932;2023-03-13T13:04:56;9.65;;;1.50;;
74528;SDS011;63009;52.584;5.932;2023-03-13T13:07:57;9.48;;;1.88;;
74528;SDS011;63009;52.584;5.932;2023-03-13T13:10:25;10.85;;;2.03;;
74528;SDS011;63009;52.584;5.932;2023-03-13T13:16:10;9.57;;;2.28;;
74528;SDS011;63009;52.584;5.932;2023-03-13T13:18:46;9.95;;;1.98;;
74528;SDS011;63009;52.584;5.932;2023-03-13T13:23:43;12.25;;;2.22;;
74528;SDS011;63009;52.584;5.932;2023-03-13T13:28:51;11.95;;;2.67;;
74528;SDS011;63009;52.584;5.932;2023-03-13T13:31:43;14.00;;;2.63;;
74528;SDS011;63009;52.584;5.932;2023-03-13T13:36:52;12.95;;;2.85;;
74528;SDS011;63009;52.584;5.932;2023-03-13T13:40:20;13.85;;;2.97;;
74528;SDS011;63009;52.584;5.932;2023-03-13T13:51:28;13.23;;;2.45;;
74528;SDS011;63009;52.584;5.932;2023-03-13T13:53:47;16.70;;;3.33;;
74528;SDS011;63009;52.584;5.932;2023-03-13T14:02:38;13.23;;;2.67;;
74528;SDS011;63009;52.584;5.932;2023-03-13T14:05:31;11.10;;;2.13;;
74528;SDS011;63009;52.584;5.932;2023-03-13T14:08:03;16.83;;;3.13;;
74528;SDS011;63009;52.584;5.932;2023-03-13T14:11:04;13.18;;;2.88;;
74528;SDS011;63009;52.584;5.932;2023-03-13T14:14:09;14.90;;;2.70;;
74528;SDS011;63009;52.584;5.932;2023-03-13T14:16:34;12.85;;;2.45;;
74528;SDS011;63009;52.584;5.932;2023-03-13T14:19:01;15.50;;;3.13;;
74528;SDS011;63009;52.584;5.932;2023-03-13T14:21:28;16.52;;;3.17;;
74528;SDS011;63009;52.584;5.932;2023-03-13T14:23:55;12.45;;;2.90;;
74528;SDS011;63009;52.584;5.932;2023-03-13T14:26:22;13.25;;;2.20;;
74528;SDS011;63009;52.584;5.932;2023-03-13T14:29:14;11.23;;;2.53;;
74528;SDS011;63009;52.584;5.932;2023-03-13T14:31:46;13.60;;;2.55;;
74528;SDS011;63009;52.584;5.932;2023-03-13T14:34:15;11.80;;;3.03;;
74528;SDS011;63009;52.584;5.932;2023-03-13T14:36:51;14.23;;;2.40;;
74528;SDS011;63009;52.584;5.932;2023-03-13T14:41:54;11.45;;;2.22;;
74528;SDS011;63009;52.584;5.932;2023-03-13T14:44:36;12.50;;;3.20;;
74528;SDS011;63009;52.584;5.932;2023-03-13T14:47:03;12.13;;;2.53;;
74528;SDS011;63009;52.584;5.932;2023-03-13T14:49:31;13.98;;;2.65;;
74528;SDS011;63009;52.584;5.932;2023-03-13T14:52:01;12.13;;;2.85;;
74528;SDS011;63009;52.584;5.932;2023-03-13T14:54:29;13.98;;;2.72;;
74528;SDS011;63009;52.584;5.932;2023-03-13T14:57:05;14.55;;;2.90;;
74528;SDS011;63009;52.584;5.932;2023-03-13T14:59:33;9.18;;;2.67;;
74528;SDS011;63009;52.584;5.932;2023-03-13T15:01:59;13.18;;;3.17;;
74528;SDS011;63009;52.584;5.932;2023-03-13T15:04:52;16.52;;;2.55;;
74528;SDS011;63009;52.584;5.932;2023-03-13T15:10:17;13.90;;;2.40;;
74528;SDS011;63009;52.584;5.932;2023-03-13T15:12:44;20.63;;;4.03;;
74528;SDS011;63009;52.584;5.932;2023-03-13T15:15:10;17.20;;;2.88;;
74528;SDS011;63009;52.584;5.932;2023-03-13T15:17:35;17.38;;;2.70;;
74528;SDS011;63009;52.584;5.932;2023-03-13T15:20:01;16.52;;;3.28;;
74528;SDS011;63009;52.584;5.932;2023-03-13T15:22:27;16.75;;;3.15;;
74528;SDS011;63009;52.584;5.932;2023-03-13T15:24:55;14.13;;;3.00;;
74528;SDS011;63009;52.584;5.932;2023-03-13T15:27:21;16.27;;;3.30;;
74528;SDS011;63009;52.584;5.932;2023-03-13T15:29:48;14.45;;;2.58;;
74528;SDS011;63009;52.584;5.932;2023-03-13T15:32:16;15.23;;;3.50;;
74528;SDS011;63009;52.584;5.932;2023-03-13T15:34:47;17.05;;;2.65;;
74528;SDS011;63009;52.584;5.932;2023-03-13T15:37:13;13.82;;;2.90;;
74528;SDS011;63009;52.584;5.932;2023-03-13T15:39:39;13.23;;;2.47;;
74528;SDS011;63009;52.584;5.932;2023-03-13T15:42:05;14.75;;;2.88;;
74528;SDS011;63009;52.584;5.932;2023-03-13T15:44:30;15.70;;;2.92;;
74528;SDS011;63009;52.584;5.932;2023-03-13T15:46:55;17.27;;;2.80;;
74528;SDS011;63009;52.584;5.932;2023-03-13T15:49:21;17.55;;;2.80;;
74528;SDS011;63009;52.584;5.932;2023-03-13T15:51:46;10.93;;;2.43;;
74528;SDS011;63009;52.584;5.932;2023-03-13T15:54:11;13.80;;;2.40;;
74528;SDS011;63009;52.584;5.932;2023-03-13T15:56:37;20.37;;;3.63;;
74528;SDS011;63009;52.584;5.932;2023-03-13T15:59:10;19.40;;;2.97;;
74528;SDS011;63009;52.584;5.932;2023-03-13T16:01:36;14.57;;;2.40;;
74528;SDS011;63009;52.584;5.932;2023-03-13T16:04:02;13.77;;;3.08;;
74528;SDS011;63009;52.584;5.932;2023-03-13T16:06:28;16.85;;;3.65;;
74528;SDS011;63009;52.584;5.932;2023-03-13T16:08:57;16.80;;;3.53;;
74528;SDS011;63009;52.584;5.932;2023-03-13T16:11:26;20.20;;;3.00;;
74528;SDS011;63009;52.584;5.932;2023-03-13T16:13:52;13.82;;;2.78;;
74528;SDS011;63009;52.584;5.932;2023-03-13T16:18:45;16.25;;;3.83;;
74528;SDS011;63009;52.584;5.932;2023-03-13T16:21:17;12.93;;;2.17;;
74528;SDS011;63009;52.584;5.932;2023-03-13T16:23:45;12.68;;;2.92;;
74528;SDS011;63009;52.584;5.932;2023-03-13T16:26:12;15.13;;;2.92;;
74528;SDS011;63009;52.584;5.932;2023-03-13T16:28:40;15.52;;;2.70;;
74528;SDS011;63009;52.584;5.932;2023-03-13T16:31:06;12.67;;;2.50;;
74528;SDS011;63009;52.584;5.932;2023-03-13T16:33:38;16.75;;;3.15;;
74528;SDS011;63009;52.584;5.932;2023-03-13T16:36:07;13.67;;;2.30;;
74528;SDS011;63009;52.584;5.932;2023-03-13T16:41:02;16.23;;;2.60;;
74528;SDS011;63009;52.584;5.932;2023-03-13T16:43:28;12.50;;;2.55;;
74528;SDS011;63009;52.584;5.932;2023-03-13T16:45:53;21.73;;;3.50;;
74528;SDS011;63009;52.584;5.932;2023-03-13T16:48:18;14.18;;;2.72;;
74528;SDS011;63009;52.584;5.932;2023-03-13T16:50:46;21.33;;;4.25;;
74528;SDS011;63009;52.584;5.932;2023-03-13T16:53:12;18.23;;;2.80;;